Terminal Aerodrome Forecast
Issued by NWS Shreveport, LA

Home | Current Version | Previous Version | Text Only | Print | Product List | Glossary On
Versions: 1 2 3 4 5 6 7 8 9 10 11 12 13 14 15 16 17 18 19 20
000
FTUS44 KSHV 210733 AAA
TAFGGG
TAF AMD
KGGG 210733Z 2108/2206 17012KT P6SM OVC010
      TEMPO 2108/2112 4SM -DZ BR OVC006
     FM211200 17012KT 5SM BR OVC004
      TEMPO 2112/2116 P6SM NSW OVC007
     FM211600 18012G18KT P6SM OVC008
     FM211900 18014G23KT P6SM VCSH OVC015
     FM220000 17014G24KT P6SM VCTS OVC015CB
      TEMPO 2203/2206 VRB20G35KT 2SM TSRA BR OVC015CB=

USA.gov is the U.S. government's official web portal to all federal, state and local government web resources and services.